Impacts TAF Board
For situational awareness. Not to be used for flight planning purposes.
IDs:

KPIT - Pittsburgh Intl, PA, US

Issued at 0524 UTC 24 Mar 2019
Updated at 0640 UTC 24 Mar 2019
Potential Impact None Slight Moderate High
Time0551Z 24/07Z 24/08Z 24/09Z 24/10Z 24/11Z 24/12Z 24/13Z 24/14Z 24/15Z 24/16Z 24/17Z 24/18Z 24/19Z>>
Type OBS PRVL PRVL PRVL PRVL PRVL PRVL PRVL PRVL PRVL PRVL PRVL PRVL PRVL
VIS 10 >6 >6 >6 >6 >6 >6 >6 >6 >6 >6 >6 >6 >6
CIG -- -- -- -- -- -- -- -- -- -- -- -- 150 150
Cover CLR SCT SCT SCT SCT SCT SCT SCT SCT SCT SCT SCT BKN BKN
FltCat VFR VFR VFR VFR VFR VFR VFR VFR VFR VFR VFR VFR VFR VFR
WX -- -- -- -- -- -- -- -- -- -- -- -- -- --
WDir VRB 220 220 220 220 220 220 220 220 220 220 220 240 240
WSpd 0 3 3 3 3 3 3 3 3 3 3 3 6 6
WGst -- -- -- -- -- -- -- -- -- -- -- -- -- --
Raw TAF
KPIT 240524Z 2406/2512 22003KT P6SM SCT250
  FM241800 24006KT P6SM BKN150
  FM250500 00000KT 5SM -SHRA BR OVC025


Raw METAR
KPIT 240551Z 00000KT 10SM CLR M01/M08 A3024 RMK AO2 SLP258 T10111078 10044 21011 57005 $
KPIT 240451Z 00000KT 10SM CLR M01/M08 A3025 RMK AO2 SLP261 T10061083 400781056 $
KPIT 240351Z 00000KT 10SM CLR M01/M08 A3025 RMK AO2 SLP263 T10061083 $

METAR Board
Radar Display
Forecast Discussion
For situational awareness. Not to be used for flight planning purposes.